sensor_id;sensor_type;location;lat;lon;timestamp;temperature;humidity
65078;DHT22;51672;51.230;-2.322;2023-02-03T00:00:22;9.90;99.90
65078;DHT22;51672;51.230;-2.322;2023-02-03T00:04:04;9.80;99.90
65078;DHT22;51672;51.230;-2.322;2023-02-03T00:07:47;9.80;99.90
65078;DHT22;51672;51.230;-2.322;2023-02-03T00:11:30;9.80;99.90
65078;DHT22;51672;51.230;-2.322;2023-02-03T00:15:12;9.80;99.90
65078;DHT22;51672;51.230;-2.322;2023-02-03T00:18:54;9.70;99.90
65078;DHT22;51672;51.230;-2.322;2023-02-03T00:22:36;9.70;99.90
65078;DHT22;51672;51.230;-2.322;2023-02-03T00:26:18;9.60;99.90
65078;DHT22;51672;51.230;-2.322;2023-02-03T00:30:00;9.60;99.90
65078;DHT22;51672;51.230;-2.322;2023-02-03T00:33:43;9.60;99.90
65078;DHT22;51672;51.230;-2.322;2023-02-03T00:37:25;9.60;99.90
65078;DHT22;51672;51.230;-2.322;2023-02-03T00:41:07;9.50;99.90
65078;DHT22;51672;51.230;-2.322;2023-02-03T00:44:49;9.50;99.90
65078;DHT22;51672;51.230;-2.322;2023-02-03T00:48:31;9.50;99.90
65078;DHT22;51672;51.230;-2.322;2023-02-03T00:52:13;9.50;99.90
65078;DHT22;51672;51.230;-2.322;2023-02-03T00:55:55;9.50;99.90
65078;DHT22;51672;51.230;-2.322;2023-02-03T00:59:37;9.50;99.90
65078;DHT22;51672;51.230;-2.322;2023-02-03T01:03:19;9.50;99.90
65078;DHT22;51672;51.230;-2.322;2023-02-03T01:07:01;9.50;99.90
65078;DHT22;51672;51.230;-2.322;2023-02-03T01:10:43;9.50;99.90
65078;DHT22;51672;51.230;-2.322;2023-02-03T01:14:25;9.50;99.90
65078;DHT22;51672;51.230;-2.322;2023-02-03T01:18:07;9.40;99.90
65078;DHT22;51672;51.230;-2.322;2023-02-03T01:21:49;9.40;99.90
65078;DHT22;51672;51.230;-2.322;2023-02-03T01:25:34;9.50;99.90
65078;DHT22;51672;51.230;-2.322;2023-02-03T01:29:16;9.50;99.90
65078;DHT22;51672;51.230;-2.322;2023-02-03T01:32:58;9.50;99.90
65078;DHT22;51672;51.230;-2.322;2023-02-03T01:36:40;9.50;99.90
65078;DHT22;51672;51.230;-2.322;2023-02-03T01:40:22;9.50;99.90
65078;DHT22;51672;51.230;-2.322;2023-02-03T01:44:34;9.50;99.90
65078;DHT22;51672;51.230;-2.322;2023-02-03T01:48:19;9.50;99.90
65078;DHT22;51672;51.230;-2.322;2023-02-03T01:52:02;9.60;99.90
65078;DHT22;51672;51.230;-2.322;2023-02-03T01:55:47;9.60;99.90
65078;DHT22;51672;51.230;-2.322;2023-02-03T01:59:31;9.60;99.90
65078;DHT22;51672;51.230;-2.322;2023-02-03T02:03:23;9.60;99.90
65078;DHT22;51672;51.230;-2.322;2023-02-03T02:07:06;9.60;99.90
65078;DHT22;51672;51.230;-2.322;2023-02-03T02:10:49;9.70;99.90
65078;DHT22;51672;51.230;-2.322;2023-02-03T02:14:32;9.70;99.90
65078;DHT22;51672;51.230;-2.322;2023-02-03T02:22:13;9.70;99.90
65078;DHT22;51672;51.230;-2.322;2023-02-03T02:35:08;9.80;99.90
65078;DHT22;51672;51.230;-2.322;2023-02-03T02:38:53;9.70;99.90
65078;DHT22;51672;51.230;-2.322;2023-02-03T02:43:03;9.70;99.90
65078;DHT22;51672;51.230;-2.322;2023-02-03T02:46:50;9.70;99.90
65078;DHT22;51672;51.230;-2.322;2023-02-03T02:50:38;9.70;99.90
65078;DHT22;51672;51.230;-2.322;2023-02-03T02:54:23;9.70;99.90
65078;DHT22;51672;51.230;-2.322;2023-02-03T02:58:12;9.70;99.90
65078;DHT22;51672;51.230;-2.322;2023-02-03T03:02:11;9.70;99.90
65078;DHT22;51672;51.230;-2.322;2023-02-03T03:05:54;9.70;99.90
65078;DHT22;51672;51.230;-2.322;2023-02-03T03:09:46;9.70;99.90
65078;DHT22;51672;51.230;-2.322;2023-02-03T03:13:41;9.70;99.90
65078;DHT22;51672;51.230;-2.322;2023-02-03T03:17:29;9.80;99.90
65078;DHT22;51672;51.230;-2.322;2023-02-03T03:21:18;9.80;99.90
65078;DHT22;51672;51.230;-2.322;2023-02-03T03:25:19;9.80;99.90
65078;DHT22;51672;51.230;-2.322;2023-02-03T03:29:15;9.80;99.90
65078;DHT22;51672;51.230;-2.322;2023-02-03T03:32:59;9.80;99.90
65078;DHT22;51672;51.230;-2.322;2023-02-03T03:36:43;9.80;99.90
65078;DHT22;51672;51.230;-2.322;2023-02-03T03:40:32;9.90;99.90
65078;DHT22;51672;51.230;-2.322;2023-02-03T03:44:19;9.80;99.90
65078;DHT22;51672;51.230;-2.322;2023-02-03T03:48:10;9.80;99.90
65078;DHT22;51672;51.230;-2.322;2023-02-03T03:52:01;9.80;99.90
65078;DHT22;51672;51.230;-2.322;2023-02-03T03:55:48;9.80;99.90
65078;DHT22;51672;51.230;-2.322;2023-02-03T03:59:34;9.90;99.90
65078;DHT22;51672;51.230;-2.322;2023-02-03T04:03:23;9.80;99.90
65078;DHT22;51672;51.230;-2.322;2023-02-03T04:07:06;9.90;99.90
65078;DHT22;51672;51.230;-2.322;2023-02-03T04:10:48;9.90;99.90
65078;DHT22;51672;51.230;-2.322;2023-02-03T04:14:35;9.90;99.90
65078;DHT22;51672;51.230;-2.322;2023-02-03T04:18:20;9.90;99.90
65078;DHT22;51672;51.230;-2.322;2023-02-03T04:22:02;10.00;99.90
65078;DHT22;51672;51.230;-2.322;2023-02-03T04:25:44;9.90;99.90
65078;DHT22;51672;51.230;-2.322;2023-02-03T04:29:26;9.90;99.90
65078;DHT22;51672;51.230;-2.322;2023-02-03T04:33:08;9.90;99.90
65078;DHT22;51672;51.230;-2.322;2023-02-03T04:36:50;9.90;99.90
65078;DHT22;51672;51.230;-2.322;2023-02-03T04:40:32;9.90;99.90
65078;DHT22;51672;51.230;-2.322;2023-02-03T04:44:15;9.80;99.90
65078;DHT22;51672;51.230;-2.322;2023-02-03T04:47:57;9.90;99.90
65078;DHT22;51672;51.230;-2.322;2023-02-03T04:51:39;9.90;99.90
65078;DHT22;51672;51.230;-2.322;2023-02-03T04:55:23;9.90;99.90
65078;DHT22;51672;51.230;-2.322;2023-02-03T04:59:05;9.90;99.90
65078;DHT22;51672;51.230;-2.322;2023-02-03T05:02:47;10.00;99.90
65078;DHT22;51672;51.230;-2.322;2023-02-03T05:06:29;10.00;99.90
65078;DHT22;51672;51.230;-2.322;2023-02-03T05:10:13;10.00;99.90
65078;DHT22;51672;51.230;-2.322;2023-02-03T05:13:55;10.00;99.90
65078;DHT22;51672;51.230;-2.322;2023-02-03T05:17:37;10.10;99.90
65078;DHT22;51672;51.230;-2.322;2023-02-03T05:21:20;10.10;99.90
65078;DHT22;51672;51.230;-2.322;2023-02-03T05:25:03;10.10;99.90
65078;DHT22;51672;51.230;-2.322;2023-02-03T05:28:45;10.20;99.90
65078;DHT22;51672;51.230;-2.322;2023-02-03T05:32:27;10.20;99.90
65078;DHT22;51672;51.230;-2.322;2023-02-03T05:36:09;10.10;99.90
65078;DHT22;51672;51.230;-2.322;2023-02-03T05:39:51;10.00;99.90
65078;DHT22;51672;51.230;-2.322;2023-02-03T05:43:33;9.80;99.90
65078;DHT22;51672;51.230;-2.322;2023-02-03T05:47:18;9.70;99.90
65078;DHT22;51672;51.230;-2.322;2023-02-03T05:51:00;9.70;99.90
65078;DHT22;51672;51.230;-2.322;2023-02-03T05:54:41;9.60;99.90
65078;DHT22;51672;51.230;-2.322;2023-02-03T05:58:23;9.60;99.90
65078;DHT22;51672;51.230;-2.322;2023-02-03T06:02:05;9.70;99.90
65078;DHT22;51672;51.230;-2.322;2023-02-03T06:05:47;9.80;99.90
65078;DHT22;51672;51.230;-2.322;2023-02-03T06:09:29;9.80;99.90
65078;DHT22;51672;51.230;-2.322;2023-02-03T06:13:14;9.80;99.90
65078;DHT22;51672;51.230;-2.322;2023-02-03T06:16:57;9.90;99.90
65078;DHT22;51672;51.230;-2.322;2023-02-03T06:20:39;9.90;99.90
65078;DHT22;51672;51.230;-2.322;2023-02-03T06:24:21;10.00;99.90
65078;DHT22;51672;51.230;-2.322;2023-02-03T06:28:03;10.00;99.90
65078;DHT22;51672;51.230;-2.322;2023-02-03T06:31:45;10.10;99.90
65078;DHT22;51672;51.230;-2.322;2023-02-03T06:35:27;10.10;99.90
65078;DHT22;51672;51.230;-2.322;2023-02-03T06:39:09;10.20;99.90
65078;DHT22;51672;51.230;-2.322;2023-02-03T06:42:51;10.20;99.90
65078;DHT22;51672;51.230;-2.322;2023-02-03T06:46:33;10.30;99.90
65078;DHT22;51672;51.230;-2.322;2023-02-03T06:50:16;10.30;99.90
65078;DHT22;51672;51.230;-2.322;2023-02-03T06:53:57;10.40;99.90
65078;DHT22;51672;51.230;-2.322;2023-02-03T06:57:44;10.40;99.90
65078;DHT22;51672;51.230;-2.322;2023-02-03T07:01:27;10.40;99.90
65078;DHT22;51672;51.230;-2.322;2023-02-03T07:05:10;10.40;99.90
65078;DHT22;51672;51.230;-2.322;2023-02-03T07:08:52;10.40;99.90
65078;DHT22;51672;51.230;-2.322;2023-02-03T07:12:34;10.30;99.90
65078;DHT22;51672;51.230;-2.322;2023-02-03T07:16:18;10.10;99.90
65078;DHT22;51672;51.230;-2.322;2023-02-03T07:20:00;10.00;99.90
65078;DHT22;51672;51.230;-2.322;2023-02-03T07:23:42;9.90;99.90
65078;DHT22;51672;51.230;-2.322;2023-02-03T07:27:24;9.80;99.90
65078;DHT22;51672;51.230;-2.322;2023-02-03T07:31:06;9.70;99.90
65078;DHT22;51672;51.230;-2.322;2023-02-03T07:34:51;9.70;99.90
65078;DHT22;51672;51.230;-2.322;2023-02-03T07:38:33;9.60;99.90
65078;DHT22;51672;51.230;-2.322;2023-02-03T07:42:15;9.50;99.90
65078;DHT22;51672;51.230;-2.322;2023-02-03T07:45:57;9.40;99.90
65078;DHT22;51672;51.230;-2.322;2023-02-03T07:49:40;9.40;99.90
65078;DHT22;51672;51.230;-2.322;2023-02-03T07:53:22;9.50;99.90
65078;DHT22;51672;51.230;-2.322;2023-02-03T07:57:04;9.60;99.90
65078;DHT22;51672;51.230;-2.322;2023-02-03T08:00:46;9.70;99.90
65078;DHT22;51672;51.230;-2.322;2023-02-03T08:04:30;9.80;99.90
65078;DHT22;51672;51.230;-2.322;2023-02-03T08:08:12;9.90;99.90
65078;DHT22;51672;51.230;-2.322;2023-02-03T08:11:54;10.00;99.90
65078;DHT22;51672;51.230;-2.322;2023-02-03T08:15:36;10.00;99.90
65078;DHT22;51672;51.230;-2.322;2023-02-03T08:19:18;10.10;99.90
65078;DHT22;51672;51.230;-2.322;2023-02-03T08:23:00;10.20;99.90
65078;DHT22;51672;51.230;-2.322;2023-02-03T08:26:42;10.30;99.90
65078;DHT22;51672;51.230;-2.322;2023-02-03T08:30:24;10.30;99.90
65078;DHT22;51672;51.230;-2.322;2023-02-03T16:52:21;12.20;99.90
65078;DHT22;51672;51.230;-2.322;2023-02-03T17:04:55;11.90;99.90
65078;DHT22;51672;51.230;-2.322;2023-02-03T17:08:39;11.90;99.90
65078;DHT22;51672;51.230;-2.322;2023-02-03T17:12:21;11.90;99.90
65078;DHT22;51672;51.230;-2.322;2023-02-03T17:16:09;11.80;99.90
65078;DHT22;51672;51.230;-2.322;2023-02-03T17:19:51;11.70;99.90
65078;DHT22;51672;51.230;-2.322;2023-02-03T17:23:33;11.70;99.90
65078;DHT22;51672;51.230;-2.322;2023-02-03T17:27:15;11.60;99.90
65078;DHT22;51672;51.230;-2.322;2023-02-03T17:31:00;11.50;99.90
65078;DHT22;51672;51.230;-2.322;2023-02-03T17:34:42;11.50;99.90
65078;DHT22;51672;51.230;-2.322;2023-02-03T17:38:25;11.40;99.90
65078;DHT22;51672;51.230;-2.322;2023-02-03T17:42:07;11.40;99.90
65078;DHT22;51672;51.230;-2.322;2023-02-03T17:46:07;11.30;99.90
65078;DHT22;51672;51.230;-2.322;2023-02-03T17:50:07;11.40;99.90
65078;DHT22;51672;51.230;-2.322;2023-02-03T17:54:07;11.30;99.90
65078;DHT22;51672;51.230;-2.322;2023-02-03T17:57:49;11.30;99.90
65078;DHT22;51672;51.230;-2.322;2023-02-03T18:01:31;11.30;99.90
65078;DHT22;51672;51.230;-2.322;2023-02-03T18:05:13;11.30;99.90
65078;DHT22;51672;51.230;-2.322;2023-02-03T18:08:56;11.30;99.90
65078;DHT22;51672;51.230;-2.322;2023-02-03T18:12:43;11.20;99.90
65078;DHT22;51672;51.230;-2.322;2023-02-03T18:16:27;11.20;99.90
65078;DHT22;51672;51.230;-2.322;2023-02-03T18:20:10;11.20;99.90
65078;DHT22;51672;51.230;-2.322;2023-02-03T18:23:53;11.20;99.90
65078;DHT22;51672;51.230;-2.322;2023-02-03T18:27:40;11.20;99.90
65078;DHT22;51672;51.230;-2.322;2023-02-03T18:31:22;11.20;99.90
65078;DHT22;51672;51.230;-2.322;2023-02-03T18:35:06;11.20;99.90
65078;DHT22;51672;51.230;-2.322;2023-02-03T18:38:53;11.20;99.90
65078;DHT22;51672;51.230;-2.322;2023-02-03T18:42:35;11.10;99.90
65078;DHT22;51672;51.230;-2.322;2023-02-03T18:46:24;11.20;99.90
65078;DHT22;51672;51.230;-2.322;2023-02-03T18:50:40;11.10;99.90
65078;DHT22;51672;51.230;-2.322;2023-02-03T18:54:55;11.10;99.90
65078;DHT22;51672;51.230;-2.322;2023-02-03T18:58:37;11.10;99.90
65078;DHT22;51672;51.230;-2.322;2023-02-03T19:02:20;11.10;99.90
65078;DHT22;51672;51.230;-2.322;2023-02-03T19:06:10;11.10;99.90
65078;DHT22;51672;51.230;-2.322;2023-02-03T19:10:05;11.10;99.90
65078;DHT22;51672;51.230;-2.322;2023-02-03T19:13:47;11.10;99.90
65078;DHT22;51672;51.230;-2.322;2023-02-03T19:17:57;11.00;99.90
65078;DHT22;51672;51.230;-2.322;2023-02-03T19:21:39;11.10;99.90
65078;DHT22;51672;51.230;-2.322;2023-02-03T19:25:21;11.00;99.90
65078;DHT22;51672;51.230;-2.322;2023-02-03T19:29:03;11.00;99.90
65078;DHT22;51672;51.230;-2.322;2023-02-03T19:32:45;11.00;99.90
65078;DHT22;51672;51.230;-2.322;2023-02-03T19:36:28;10.90;99.90
65078;DHT22;51672;51.230;-2.322;2023-02-03T19:40:10;10.90;99.90
65078;DHT22;51672;51.230;-2.322;2023-02-03T19:43:52;10.90;99.90
65078;DHT22;51672;51.230;-2.322;2023-02-03T19:47:34;10.90;99.90
65078;DHT22;51672;51.230;-2.322;2023-02-03T19:51:16;10.90;99.90
65078;DHT22;51672;51.230;-2.322;2023-02-03T19:54:58;10.90;99.90
65078;DHT22;51672;51.230;-2.322;2023-02-03T19:58:40;10.90;99.90
65078;DHT22;51672;51.230;-2.322;2023-02-03T20:02:23;10.90;99.90
65078;DHT22;51672;51.230;-2.322;2023-02-03T20:06:06;11.00;99.90
65078;DHT22;51672;51.230;-2.322;2023-02-03T20:09:49;11.00;99.90
65078;DHT22;51672;51.230;-2.322;2023-02-03T20:13:31;11.00;99.90
65078;DHT22;51672;51.230;-2.322;2023-02-03T20:17:13;11.00;99.90
65078;DHT22;51672;51.230;-2.322;2023-02-03T20:20:55;11.00;99.90
65078;DHT22;51672;51.230;-2.322;2023-02-03T20:24:37;11.00;99.90
65078;DHT22;51672;51.230;-2.322;2023-02-03T20:28:21;11.00;99.90
65078;DHT22;51672;51.230;-2.322;2023-02-03T20:32:03;11.00;99.90
65078;DHT22;51672;51.230;-2.322;2023-02-03T20:35:48;10.90;99.90
65078;DHT22;51672;51.230;-2.322;2023-02-03T20:39:30;10.90;99.90
65078;DHT22;51672;51.230;-2.322;2023-02-03T20:43:25;10.90;99.90
65078;DHT22;51672;51.230;-2.322;2023-02-03T20:47:14;10.90;99.90
65078;DHT22;51672;51.230;-2.322;2023-02-03T20:50:57;10.80;99.90
65078;DHT22;51672;51.230;-2.322;2023-02-03T20:54:39;10.70;99.90
65078;DHT22;51672;51.230;-2.322;2023-02-03T20:58:27;10.60;99.90
65078;DHT22;51672;51.230;-2.322;2023-02-03T21:02:21;10.60;99.90
65078;DHT22;51672;51.230;-2.322;2023-02-03T21:06:18;10.60;99.90
65078;DHT22;51672;51.230;-2.322;2023-02-03T21:10:15;10.50;99.90
65078;DHT22;51672;51.230;-2.322;2023-02-03T21:13:58;10.50;99.90
65078;DHT22;51672;51.230;-2.322;2023-02-03T21:17:41;10.50;99.90
65078;DHT22;51672;51.230;-2.322;2023-02-03T21:21:32;10.40;99.90
65078;DHT22;51672;51.230;-2.322;2023-02-03T21:25:27;10.40;99.90
65078;DHT22;51672;51.230;-2.322;2023-02-03T21:29:21;10.30;99.90
65078;DHT22;51672;51.230;-2.322;2023-02-03T21:33:31;10.30;99.90
65078;DHT22;51672;51.230;-2.322;2023-02-03T21:41:17;10.20;99.90
65078;DHT22;51672;51.230;-2.322;2023-02-03T21:44:59;10.20;99.90
65078;DHT22;51672;51.230;-2.322;2023-02-03T21:48:44;10.20;99.90
65078;DHT22;51672;51.230;-2.322;2023-02-03T21:52:29;10.20;99.90
65078;DHT22;51672;51.230;-2.322;2023-02-03T21:56:32;10.20;99.90
65078;DHT22;51672;51.230;-2.322;2023-02-03T22:00:44;10.20;99.90
65078;DHT22;51672;51.230;-2.322;2023-02-03T22:04:29;10.10;99.90
65078;DHT22;51672;51.230;-2.322;2023-02-03T22:08:22;10.10;99.90
65078;DHT22;51672;51.230;-2.322;2023-02-03T22:12:05;10.20;99.90
65078;DHT22;51672;51.230;-2.322;2023-02-03T22:15:47;10.30;99.90
65078;DHT22;51672;51.230;-2.322;2023-02-03T22:19:30;10.30;99.90
65078;DHT22;51672;51.230;-2.322;2023-02-03T22:23:13;10.20;99.90
65078;DHT22;51672;51.230;-2.322;2023-02-03T22:26:54;10.20;99.90
65078;DHT22;51672;51.230;-2.322;2023-02-03T22:30:40;10.20;99.90
65078;DHT22;51672;51.230;-2.322;2023-02-03T22:34:22;10.20;99.90
65078;DHT22;51672;51.230;-2.322;2023-02-03T22:38:04;10.10;99.90
65078;DHT22;51672;51.230;-2.322;2023-02-03T22:41:46;10.10;99.90
65078;DHT22;51672;51.230;-2.322;2023-02-03T22:45:28;10.10;99.90
65078;DHT22;51672;51.230;-2.322;2023-02-03T22:49:10;10.00;99.90
65078;DHT22;51672;51.230;-2.322;2023-02-03T22:52:53;10.00;99.90
65078;DHT22;51672;51.230;-2.322;2023-02-03T22:56:35;9.90;99.90
65078;DHT22;51672;51.230;-2.322;2023-02-03T23:00:22;9.90;99.90
65078;DHT22;51672;51.230;-2.322;2023-02-03T23:04:04;9.90;99.90
65078;DHT22;51672;51.230;-2.322;2023-02-03T23:07:46;9.90;99.90
65078;DHT22;51672;51.230;-2.322;2023-02-03T23:11:29;9.80;99.90
65078;DHT22;51672;51.230;-2.322;2023-02-03T23:15:11;9.70;99.90
65078;DHT22;51672;51.230;-2.322;2023-02-03T23:18:54;9.70;99.90
65078;DHT22;51672;51.230;-2.322;2023-02-03T23:22:36;9.70;99.90
65078;DHT22;51672;51.230;-2.322;2023-02-03T23:26:18;9.60;99.90
65078;DHT22;51672;51.230;-2.322;2023-02-03T23:30:00;9.60;99.90
65078;DHT22;51672;51.230;-2.322;2023-02-03T23:33:42;9.60;99.90
65078;DHT22;51672;51.230;-2.322;2023-02-03T23:37:47;9.70;99.90
65078;DHT22;51672;51.230;-2.322;2023-02-03T23:41:28;9.70;99.90
65078;DHT22;51672;51.230;-2.322;2023-02-03T23:45:10;9.70;99.90
65078;DHT22;51672;51.230;-2.322;2023-02-03T23:48:53;9.60;99.90
65078;DHT22;51672;51.230;-2.322;2023-02-03T23:52:35;9.60;99.90
65078;DHT22;51672;51.230;-2.322;2023-02-03T23:56:17;9.60;99.90
65078;DHT22;51672;51.230;-2.322;2023-02-03T23:59:59;9.60;99.90
